Strona główna
METAR-TAF:

METAR-TAF

Lotnisko :

Port lotniczy Taszkent

Taszkent, Uzbekistan

Szerokość geograficzna: 41-16N, Długość geograficzna: 069-16E, wysokość: 489 m

Aktualna obserwacja pogody

Raport powstał 44 minut temu, godzina 02:00 UTC
Wiatr 6 kt od północny wschód
Temperatura 3°C
Wilgotność 52%
Ciśnienie 1026 hPa
Widzialność 10 km lub więcej
Brak chmur poniżej 1500 m i brak chmur cumulonimbus

METAR: UTTT 180200Z 05006KT CAVOK 03/M06 Q1026 R26R/CLRD70 NOSIG

czas: 07:44 (02:44 UTC)

Prognoza

Raport powstał 3 godziny i 44 minut temu, godzina 23:00 UTC
Prognoza ważna od 18 godzina 00 UTC do 18 godzina 24 UTC
Wiatr 10 kt od wschód
Widzialność: 7000 m
Przejściowo
od 18 godzina 00 UTC do 18 godzina 03 UTC
Wiatr 2 kt z kierunków zmiennych
Widzialność: 0800 m
Rozproszone chmury na wysokości 800 ft
mgła

TAF: UTTT 172300Z 1800/1824 09010KT 7000 NSC TEMPO 1800/1803 VRB02KT 0800 FG SCT008

Obserwacja i prognoza pogody dla ponad 4000 lotnisk (raport METAR i TAF).

Dostępne stacje oznaczono żółtymi i czerwonymi punktami na mapie.

Najedź kursorem aby zobaczyć nazwę stacji.

Kliknij aby zobaczyć obserwacje i prognozy pogody.

Aby zmienić mapę: kliknij na zielony przycisk z czarnym krzyżykiem, aby powiększyć; na zielony przycisk z myślnikiem, aby pomniejszyć; na zielone strzałki, aby przejść do map sąsiednich.


METAR-TAF: